createdAt,value
2022-12-03T00:03:26.120Z,30.70
2022-12-03T00:08:27.912Z,29.03
2022-12-03T00:13:29.604Z,29.05
2022-12-03T00:18:31.261Z,29.07
2022-12-03T00:23:37.104Z,29.55
2022-12-03T00:28:41.913Z,28.02
2022-12-03T00:33:43.579Z,29.85
2022-12-03T00:38:45.821Z,30.75
2022-12-03T00:43:47.863Z,26.40
2022-12-03T00:48:49.561Z,26.95
2022-12-03T00:53:51.253Z,27.93
2022-12-03T00:58:52.995Z,28.97
2022-12-03T01:03:54.663Z,28.30
2022-12-03T01:08:56.355Z,26.40
2022-12-03T01:13:58.044Z,27.83
2022-12-03T01:18:59.783Z,28.00
2022-12-03T01:24:01.492Z,27.00
2022-12-03T01:29:03.952Z,27.65
2022-12-03T01:34:06.170Z,26.67
2022-12-03T01:39:07.976Z,28.50
2022-12-03T01:44:23.278Z,27.80
2022-12-03T01:49:34.105Z,28.27
2022-12-03T01:54:43.146Z,29.23
2022-12-03T01:59:45.123Z,24.60
2022-12-03T02:04:47.071Z,28.42
2022-12-03T02:09:48.792Z,26.40
2022-12-03T02:14:51.373Z,28.58
2022-12-03T02:19:54.956Z,28.15
2022-12-03T02:24:59.657Z,29.95
2022-12-03T02:30:01.322Z,29.52
2022-12-03T02:35:03.057Z,26.55
2022-12-03T02:40:10.458Z,28.58
2022-12-03T02:45:28.432Z,30.73
2022-12-03T02:50:36.259Z,29.65
2022-12-03T02:55:38.339Z,29.55
2022-12-03T03:00:40.337Z,29.73
2022-12-03T03:05:42.630Z,29.08
2022-12-03T03:10:44.803Z,28.67
2022-12-03T03:15:48.187Z,30.03
2022-12-03T03:20:50.023Z,30.37
2022-12-03T03:26:08.571Z,30.30
2022-12-03T03:31:12.710Z,31.70
2022-12-03T03:36:15.491Z,30.43
2022-12-03T03:41:18.741Z,29.23
2022-12-03T03:46:21.949Z,27.38
2022-12-03T03:51:23.817Z,29.23
2022-12-03T03:56:25.766Z,28.52
2022-12-03T04:01:27.880Z,30.42
2022-12-03T04:06:29.608Z,28.30
2022-12-03T04:11:49.650Z,26.95
2022-12-03T04:16:51.409Z,28.33
2022-12-03T04:22:11.504Z,27.38
2022-12-03T04:27:31.827Z,27.95
2022-12-03T04:32:52.202Z,27.63
2022-12-03T04:37:53.923Z,26.10
2022-12-03T04:42:55.603Z,27.85
2022-12-03T04:47:57.356Z,28.42
2022-12-03T04:52:59.038Z,26.65
2022-12-03T04:58:00.870Z,27.30
2022-12-03T05:03:02.690Z,28.00
2022-12-03T05:08:04.640Z,27.40
2022-12-03T05:13:06.319Z,26.50
2022-12-03T05:18:08.081Z,25.75
2022-12-03T05:23:11.229Z,25.57
2022-12-03T05:28:12.914Z,25.03
2022-12-03T05:33:14.684Z,25.27
2022-12-03T05:38:16.532Z,24.38
2022-12-03T05:43:18.247Z,26.03
2022-12-03T05:48:20.044Z,25.08
2022-12-03T05:53:21.716Z,24.00
2022-12-03T05:58:23.541Z,25.40
2022-12-03T06:03:25.383Z,26.05
2022-12-03T06:08:27.151Z,24.45
2022-12-03T06:13:28.847Z,24.50
2022-12-03T06:18:30.542Z,25.23
2022-12-03T06:23:32.287Z,24.30
2022-12-03T06:28:33.966Z,26.08
2022-12-03T06:33:35.699Z,24.85
2022-12-03T06:38:37.378Z,27.17
2022-12-03T06:43:39.050Z,25.75
2022-12-03T06:48:40.735Z,24.33
2022-12-03T06:53:42.462Z,26.20
2022-12-03T06:58:44.168Z,26.77
2022-12-03T07:03:45.864Z,26.33
2022-12-03T07:08:47.580Z,26.23
2022-12-03T07:13:49.236Z,24.97
2022-12-03T07:18:50.976Z,25.70
2022-12-03T07:23:52.640Z,24.33
2022-12-03T07:28:54.393Z,27.08
2022-12-03T07:33:56.132Z,26.00
2022-12-03T07:38:57.805Z,25.87
2022-12-03T07:43:59.485Z,24.30
2022-12-03T07:49:01.199Z,26.40
2022-12-03T07:54:02.919Z,24.10
2022-12-03T07:59:04.577Z,24.47
2022-12-03T08:04:07.242Z,25.87
2022-12-03T08:09:13.139Z,25.25
2022-12-03T08:14:32.559Z,24.93
2022-12-03T08:19:34.226Z,24.43
2022-12-03T08:24:36.578Z,24.88
2022-12-03T08:29:38.253Z,26.13
2022-12-03T08:34:44.070Z,25.90
2022-12-03T08:39:50.738Z,25.48
2022-12-03T08:44:52.921Z,24.63
2022-12-03T08:49:58.264Z,27.40
2022-12-03T08:55:10.917Z,24.60
2022-12-03T09:00:24.378Z,25.00
2022-12-03T09:05:32.535Z,27.13
2022-12-03T09:10:34.302Z,24.48
2022-12-03T09:15:35.980Z,25.65
2022-12-03T09:20:37.718Z,24.95
2022-12-03T09:25:39.448Z,26.40
2022-12-03T09:30:41.134Z,24.33
2022-12-03T09:35:42.820Z,24.85
2022-12-03T09:40:44.530Z,25.40
2022-12-03T09:45:47.805Z,24.87
2022-12-03T09:50:50.708Z,25.77
2022-12-03T09:55:52.400Z,27.52
2022-12-03T10:00:54.879Z,25.25
2022-12-03T10:05:57.722Z,25.23
2022-12-03T10:10:59.531Z,27.27
2022-12-03T10:16:01.622Z,23.87
2022-12-03T10:21:03.461Z,28.15
2022-12-03T10:26:05.290Z,28.67
2022-12-03T10:31:09.716Z,26.20
2022-12-03T10:36:23.450Z,28.73
2022-12-03T10:41:28.523Z,28.15
2022-12-03T10:46:30.393Z,28.25
2022-12-03T10:51:32.226Z,29.97
2022-12-03T10:56:34.106Z,28.58
2022-12-03T11:01:35.889Z,30.85
2022-12-03T11:06:37.645Z,30.13
2022-12-03T11:11:40.387Z,30.45
2022-12-03T11:16:41.993Z,31.45
2022-12-03T11:22:05.491Z,28.58
2022-12-03T11:27:09.811Z,29.58
2022-12-03T11:32:11.567Z,31.02
2022-12-03T11:37:21.952Z,30.77
2022-12-03T11:42:26.167Z,30.30
2022-12-03T11:47:27.979Z,26.83
2022-12-03T11:52:33.069Z,28.45
2022-12-03T11:57:38.712Z,31.75
2022-12-03T12:02:40.461Z,27.55
2022-12-03T12:07:42.525Z,29.13
2022-12-03T12:12:54.347Z,29.92
2022-12-03T12:17:56.665Z,29.77
2022-12-03T12:23:27.913Z,31.90
2022-12-03T12:28:29.574Z,29.83
2022-12-03T12:33:33.239Z,27.15
2022-12-03T12:38:34.912Z,31.00
2022-12-03T12:43:38.848Z,30.83
2022-12-03T12:48:40.563Z,30.38
2022-12-03T12:53:45.087Z,28.55
2022-12-03T12:58:46.806Z,30.10
2022-12-03T13:03:51.539Z,29.60
2022-12-03T13:08:54.062Z,31.92
2022-12-03T13:13:56.115Z,33.33
2022-12-03T13:19:01.708Z,31.70
2022-12-03T13:24:25.934Z,32.53
2022-12-03T13:29:27.968Z,33.15
2022-12-03T13:34:33.678Z,33.47
2022-12-03T13:39:38.104Z,32.67
2022-12-03T13:44:45.479Z,33.47
2022-12-03T13:50:03.549Z,32.38
2022-12-03T13:55:07.227Z,30.35
2022-12-03T14:00:09.459Z,33.53
2022-12-03T14:05:14.466Z,31.75
2022-12-03T14:10:16.906Z,30.73
2022-12-03T14:15:18.572Z,31.85
2022-12-03T14:20:21.037Z,31.80
2022-12-03T14:25:22.720Z,30.52
2022-12-03T14:30:24.423Z,31.10
2022-12-03T14:35:26.236Z,32.47
2022-12-03T14:40:27.905Z,32.30
2022-12-03T14:45:30.084Z,33.00
2022-12-03T14:50:31.830Z,33.20
2022-12-03T14:55:33.498Z,32.72
2022-12-03T15:00:35.210Z,35.50
2022-12-03T15:05:36.859Z,34.13
2022-12-03T15:10:38.548Z,30.48
2022-12-03T15:15:40.214Z,35.45
2022-12-03T15:20:41.869Z,35.63
2022-12-03T15:25:43.678Z,32.50
2022-12-03T15:30:45.449Z,31.73
2022-12-03T15:35:47.407Z,29.60
2022-12-03T15:40:49.128Z,27.35
2022-12-03T15:45:50.821Z,26.95
2022-12-03T15:50:52.511Z,25.63
2022-12-03T15:55:54.207Z,26.27
2022-12-03T16:00:55.977Z,27.08
2022-12-03T16:05:57.653Z,24.97
2022-12-03T16:10:59.324Z,24.05
2022-12-03T16:16:01.168Z,22.08
2022-12-03T16:21:02.915Z,23.42
2022-12-03T16:26:04.659Z,22.83
2022-12-03T16:31:06.390Z,26.00
2022-12-03T16:36:08.522Z,26.95
2022-12-03T16:41:10.194Z,28.98
2022-12-03T16:46:14.773Z,23.77
2022-12-03T16:51:17.062Z,25.33
2022-12-03T16:56:19.115Z,28.40
2022-12-03T17:01:20.863Z,25.07
2022-12-03T17:06:22.592Z,24.42
2022-12-03T17:11:24.254Z,25.08
2022-12-03T17:16:26.024Z,24.45
2022-12-03T17:21:30.857Z,24.60
2022-12-03T17:26:35.399Z,25.23
2022-12-03T17:31:41.610Z,25.25
2022-12-03T17:36:44.027Z,25.40
2022-12-03T17:41:45.739Z,26.27
2022-12-03T17:46:47.507Z,24.67
2022-12-03T17:51:49.263Z,25.15
2022-12-03T17:56:50.981Z,24.45
2022-12-03T18:01:52.784Z,25.40
2022-12-03T18:07:00.514Z,25.47
2022-12-03T18:12:03.953Z,25.17
2022-12-03T18:17:05.930Z,25.67
2022-12-03T18:22:07.826Z,24.23
2022-12-03T18:27:09.602Z,24.35
2022-12-03T18:32:27.204Z,24.10
2022-12-03T18:37:32.032Z,22.67
2022-12-03T18:42:33.719Z,24.27
2022-12-03T18:47:35.526Z,23.83
2022-12-03T18:52:37.525Z,25.13
2022-12-03T18:57:39.244Z,25.15
2022-12-03T19:08:04.059Z,25.85
2022-12-03T19:13:05.824Z,25.85
2022-12-03T19:18:07.584Z,24.02
2022-12-03T19:23:10.145Z,24.98
2022-12-03T19:28:11.851Z,24.45
2022-12-03T19:33:17.917Z,26.88
2022-12-03T19:38:20.080Z,26.10
2022-12-03T19:43:21.765Z,24.08
2022-12-03T19:48:23.477Z,24.52
2022-12-03T19:53:26.979Z,24.38
2022-12-03T19:58:28.675Z,25.70
2022-12-03T20:03:30.351Z,26.60
2022-12-03T20:08:32.425Z,25.75
2022-12-03T20:13:36.528Z,25.75
2022-12-03T20:18:41.780Z,25.08
2022-12-03T20:23:43.779Z,23.55
2022-12-03T20:28:47.927Z,21.60
2022-12-03T20:33:52.353Z,22.17
2022-12-03T20:38:59.196Z,21.25
2022-12-03T20:44:00.920Z,19.88
2022-12-03T20:49:03.103Z,20.38
2022-12-03T20:54:04.867Z,22.33
2022-12-03T20:59:10.371Z,20.08
2022-12-03T21:04:16.217Z,21.52
2022-12-03T21:09:17.961Z,19.67
2022-12-03T21:14:19.651Z,21.45
2022-12-03T21:19:21.956Z,19.90
2022-12-03T21:24:23.721Z,21.10
2022-12-03T21:29:25.440Z,20.60
2022-12-03T21:34:31.316Z,19.75
2022-12-03T21:39:37.554Z,22.55
2022-12-03T21:44:39.229Z,19.08
2022-12-03T21:49:41.066Z,21.30
2022-12-03T21:54:42.732Z,23.42
2022-12-03T21:59:45.372Z,26.75
2022-12-03T22:04:50.407Z,27.10
2022-12-03T22:09:52.418Z,27.50
2022-12-03T22:14:57.109Z,29.75
2022-12-03T22:19:58.803Z,28.23
2022-12-03T22:25:00.520Z,30.90
2022-12-03T22:30:03.298Z,31.98
2022-12-03T22:35:05.423Z,32.45
2022-12-03T22:40:07.434Z,35.22
2022-12-03T22:45:09.471Z,32.47
2022-12-03T22:50:11.340Z,35.15
2022-12-03T22:55:13.014Z,35.85
2022-12-03T23:00:15.446Z,34.33
2022-12-03T23:05:17.116Z,33.70
2022-12-03T23:10:18.792Z,36.17
2022-12-03T23:15:20.488Z,34.40
2022-12-03T23:20:22.694Z,34.03
2022-12-03T23:25:24.452Z,34.42
2022-12-03T23:30:26.253Z,37.35
2022-12-03T23:35:27.912Z,34.55
2022-12-03T23:40:29.614Z,37.08
2022-12-03T23:45:33.186Z,34.35
2022-12-03T23:50:34.981Z,35.63
2022-12-03T23:55:39.887Z,40.53
